Time;durP1;ratioP1;P1;durP2;ratioP2;P2;SDS_P1;SDS_P2;PMS_P1;PMS_P2;Temp;Humidity;BMP_temperature;BMP_pressure;BME280_temperature;BME280_humidity;BME280_pressure;Samples;Min_cycle;Max_cycle;Signal;HPM_P1;HPM_P2
2023/07/03 00:01:26;;;;;;;16.45;8.40;;;;;;;22.62;100.00;99245.00;5116133;27;20218;-65
2023/07/03 00:03:52;;;;;;;16.23;7.82;;;;;;;22.60;100.00;99244.44;5118255;27;20043;-65
2023/07/03 00:06:17;;;;;;;14.30;8.57;;;;;;;22.67;100.00;99252.34;5118705;27;20035;-65
2023/07/03 00:08:43;;;;;;;13.98;8.48;;;;;;;22.55;100.00;99250.59;5117949;27;20096;-65
2023/07/03 00:11:08;;;;;;;18.40;8.07;;;;;;;22.51;100.00;99254.06;5115330;27;20043;-65
2023/07/03 00:13:33;;;;;;;15.35;8.43;;;;;;;22.32;100.00;99244.66;5120406;27;20039;-65
2023/07/03 00:16:00;;;;;;;13.52;7.82;;;;;;;22.39;100.00;99250.66;5117704;27;20048;-65
2023/07/03 00:18:27;;;;;;;20.25;9.15;;;;;;;22.21;100.00;99252.59;5117806;27;20229;-65
2023/07/03 00:20:54;;;;;;;15.48;7.90;;;;;;;22.33;100.00;99252.50;5116969;27;20031;-65
2023/07/03 00:23:24;;;;;;;14.93;7.70;;;;;;;22.32;100.00;99253.56;5119190;27;20214;-65
2023/07/03 00:25:50;;;;;;;16.25;8.07;;;;;;;22.20;100.00;99247.47;5118246;28;20031;-65
2023/07/03 00:28:16;;;;;;;13.00;7.90;;;;;;;22.28;100.00;99252.41;5116136;27;20039;-65
2023/07/03 00:30:41;;;;;;;20.85;8.77;;;;;;;22.22;100.00;99256.13;5116142;27;20070;-65
2023/07/03 00:33:07;;;;;;;14.75;8.18;;;;;;;22.24;100.00;99264.78;5117909;27;20085;-65
2023/07/03 00:35:32;;;;;;;15.48;8.43;;;;;;;22.28;100.00;99258.63;5117985;27;20267;-65
2023/07/03 00:37:58;;;;;;;16.88;7.80;;;;;;;22.34;100.00;99259.50;5117484;27;20031;-65
2023/07/03 00:40:23;;;;;;;15.32;8.88;;;;;;;22.41;100.00;99262.84;5118218;27;21268;-65
2023/07/03 00:42:52;;;;;;;20.00;8.40;;;;;;;22.54;100.00;99265.16;5132425;27;20063;-65
2023/07/03 00:45:19;;;;;;;14.23;7.60;;;;;;;22.60;100.00;99271.44;5116158;27;20032;-65
2023/07/03 00:47:45;;;;;;;14.38;8.40;;;;;;;22.63;100.00;99269.03;5116687;27;20205;-65
2023/07/03 00:50:10;;;;;;;13.45;7.53;;;;;;;22.66;100.00;99269.63;5116392;27;20047;-65
2023/07/03 00:52:38;;;;;;;18.20;8.45;;;;;;;22.71;100.00;99269.66;5118180;27;20027;-65
2023/07/03 00:55:05;;;;;;;14.55;8.15;;;;;;;22.70;100.00;99265.34;5117273;27;20031;-65
2023/07/03 00:57:31;;;;;;;17.58;9.52;;;;;;;22.72;100.00;99269.41;5117557;27;20027;-65
2023/07/03 00:59:57;;;;;;;15.48;8.15;;;;;;;22.78;100.00;99271.09;5114836;27;20043;-65
2023/07/03 01:02:45;;;;;;;12.80;8.10;;;;;;;22.79;100.00;99269.22;5100119;27;20039;-65
2023/07/03 01:05:19;;;;;;;12.85;7.47;;;;;;;22.77;100.00;99277.56;5116839;27;20043;-65
2023/07/03 01:07:46;;;;;;;13.88;7.55;;;;;;;22.79;100.00;99274.63;5117134;27;20315;-65
2023/07/03 01:10:16;;;;;;;12.57;7.25;;;;;;;22.75;100.00;99265.41;5113714;27;20046;-65
2023/07/03 01:12:45;;;;;;;14.32;7.75;;;;;;;22.80;100.00;99268.19;5117917;27;20039;-65
2023/07/03 01:15:17;;;;;;;18.00;9.50;;;;;;;22.81;100.00;99272.50;5116707;27;20036;-65
2023/07/03 01:17:44;;;;;;;13.02;7.85;;;;;;;22.82;100.00;99266.03;5117971;27;20365;-65
2023/07/03 01:20:15;;;;;;;19.60;8.07;;;;;;;22.80;100.00;99271.69;5117167;28;20179;-65
2023/07/03 01:23:02;;;;;;;14.40;8.13;;;;;;;22.78;100.00;99273.81;5116385;28;20102;-65
2023/07/03 01:25:30;;;;;;;14.00;8.85;;;;;;;22.67;100.00;99276.63;5116209;27;20292;-65
2023/07/03 01:27:58;;;;;;;12.55;7.95;;;;;;;22.58;100.00;99277.09;5112486;28;20100;-65
2023/07/03 01:30:25;;;;;;;12.50;7.57;;;;;;;22.65;100.00;99274.19;5115407;28;20408;-65
2023/07/03 01:32:53;;;;;;;13.68;7.95;;;;;;;22.68;100.00;99281.78;5114975;28;20325;-65
2023/07/03 01:35:19;;;;;;;15.43;8.27;;;;;;;22.69;100.00;99279.91;5115292;28;20233;-65
2023/07/03 01:37:47;;;;;;;12.90;7.40;;;;;;;22.65;100.00;99279.59;5115818;28;20062;-65
2023/07/03 01:40:15;;;;;;;16.02;8.30;;;;;;;22.68;100.00;99286.38;5116554;28;20249;-65
2023/07/03 01:42:42;;;;;;;13.60;7.68;;;;;;;22.68;100.00;99278.28;5115126;28;20043;-65
2023/07/03 01:45:09;;;;;;;13.15;7.72;;;;;;;22.66;100.00;99292.00;5115498;28;20462;-65
2023/07/03 01:47:34;;;;;;;15.80;7.88;;;;;;;22.69;100.00;99290.69;5115934;28;20046;-65
2023/07/03 01:50:00;;;;;;;12.57;8.05;;;;;;;22.66;100.00;99283.91;5115738;28;20039;-65
2023/07/03 01:52:37;;;;;;;13.10;7.35;;;;;;;22.64;100.00;99291.44;5114706;28;20326;-65
2023/07/03 01:55:16;;;;;;;13.82;8.10;;;;;;;22.67;100.00;99288.25;5115176;28;20095;-65
2023/07/03 01:57:50;;;;;;;19.88;7.82;;;;;;;22.69;100.00;99296.91;5116495;28;20077;-65
2023/07/03 02:00:26;;;;;;;16.70;7.80;;;;;;;22.69;100.00;99294.22;5116531;28;20078;-65
2023/07/03 02:02:56;;;;;;;14.60;8.02;;;;;;;22.71;100.00;99299.34;5115748;28;20110;-65
2023/07/03 02:05:26;;;;;;;13.10;8.00;;;;;;;22.72;100.00;99299.09;5116100;28;20241;-65
2023/07/03 02:07:54;;;;;;;15.25;7.28;;;;;;;;;;5112148;28;20031;-65
2023/07/03 02:10:20;;;;;;;19.35;8.15;;;;;;;22.74;100.00;99294.28;5116215;28;20253;-65
2023/07/03 02:12:46;;;;;;;17.35;7.90;;;;;;;22.75;100.00;99305.88;5115025;28;20035;-65
2023/07/03 02:15:14;;;;;;;12.70;7.88;;;;;;;22.74;100.00;99294.28;5118409;27;20043;-65
2023/07/03 02:17:40;;;;;;;14.75;6.93;;;;;;;22.71;100.00;99302.06;5119889;27;20064;-65
2023/07/03 02:20:07;;;;;;;11.88;7.80;;;;;;;22.75;100.00;99300.47;5119905;27;20067;-65
2023/07/03 02:22:33;;;;;;;12.30;7.78;;;;;;;22.76;100.00;99305.63;5118555;27;20321;-65
2023/07/03 02:24:58;;;;;;;14.43;7.60;;;;;;;22.77;100.00;99307.25;5118966;27;20093;-65
2023/07/03 02:27:24;;;;;;;12.07;7.60;;;;;;;22.74;100.00;99313.16;5113664;27;20271;-65
2023/07/03 02:29:49;;;;;;;12.25;7.60;;;;;;;22.68;100.00;99311.47;5119641;27;20035;-65
2023/07/03 02:32:15;;;;;;;12.73;7.63;;;;;;;22.66;100.00;99316.31;5120748;27;20403;-65
2023/07/03 02:34:40;;;;;;;11.70;7.63;;;;;;;22.65;100.00;99313.84;5119253;27;20027;-65
2023/07/03 02:37:09;;;;;;;15.75;8.23;;;;;;;22.68;100.00;99311.47;5120627;27;20243;-65
2023/07/03 02:39:34;;;;;;;12.68;8.63;;;;;;;;;;5121679;27;20134;-65
2023/07/03 02:42:00;;;;;;;13.85;8.45;;;;;;;22.74;100.00;99328.53;5118995;27;20044;-65
2023/07/03 02:44:25;;;;;;;12.05;8.15;;;;;;;22.65;100.00;99317.38;5117997;27;20046;-65
2023/07/03 02:46:50;;;;;;;13.80;8.05;;;;;;;22.57;100.00;99324.03;5119217;27;20023;-65
2023/07/03 02:49:16;;;;;;;15.13;7.85;;;;;;;22.47;100.00;99334.69;5119714;27;20032;-65
2023/07/03 02:51:41;;;;;;;12.32;7.80;;;;;;;22.46;100.00;99337.63;5118622;27;20035;-65
2023/07/03 02:54:09;;;;;;;12.73;8.57;;;;;;;22.51;100.00;99333.13;5120464;28;20344;-65
2023/07/03 02:56:35;;;;;;;12.85;7.32;;;;;;;22.57;100.00;99339.41;5100952;27;20237;-65
2023/07/03 02:59:01;;;;;;;15.02;7.90;;;;;;;22.57;100.00;99328.59;5119527;27;20035;-65
2023/07/03 03:01:26;;;;;;;15.43;7.60;;;;;;;22.54;100.00;99340.72;5117991;27;20319;-65
2023/07/03 03:03:51;;;;;;;14.75;7.85;;;;;;;22.56;100.00;99335.88;5120918;27;20045;-65
2023/07/03 03:06:17;;;;;;;13.63;8.18;;;;;;;22.59;100.00;99340.78;5117707;27;20238;-65
2023/07/03 03:08:42;;;;;;;14.27;8.43;;;;;;;22.62;100.00;99336.75;5117352;27;20040;-65
2023/07/03 03:11:09;;;;;;;14.75;8.52;;;;;;;22.61;100.00;99343.22;5114902;27;20035;-65
2023/07/03 03:13:34;;;;;;;12.68;8.30;;;;;;;22.58;100.00;99341.84;5119877;28;20036;-65
2023/07/03 03:16:00;;;;;;;12.98;7.55;;;;;;;22.63;100.00;99341.09;5118519;28;20378;-65
2023/07/03 03:18:25;;;;;;;15.15;8.35;;;;;;;22.63;100.00;99338.41;5120054;27;20326;-65
2023/07/03 03:20:51;;;;;;;15.25;8.60;;;;;;;22.67;100.00;99336.00;5117652;27;20039;-65
2023/07/03 03:23:17;;;;;;;14.98;8.30;;;;;;;22.61;100.00;99335.13;5119106;27;20037;-65
2023/07/03 03:25:43;;;;;;;13.20;8.52;;;;;;;22.51;100.00;99335.81;5117996;27;20076;-65
2023/07/03 03:28:09;;;;;;;14.55;7.95;;;;;;;22.50;100.00;99339.56;5118390;27;20043;-65
2023/07/03 03:30:34;;;;;;;12.60;8.95;;;;;;;22.46;99.86;99337.63;5120447;27;20263;-65
2023/07/03 03:33:00;;;;;;;15.70;8.95;;;;;;;22.40;100.00;99341.31;5118311;27;20052;-65
2023/07/03 03:35:25;;;;;;;14.10;8.50;;;;;;;22.36;99.96;99340.19;5119277;27;20044;-65
2023/07/03 03:37:51;;;;;;;12.02;8.63;;;;;;;22.20;100.00;99342.66;5119434;27;20062;-65
2023/07/03 03:40:16;;;;;;;14.80;9.20;;;;;;;22.14;100.00;99346.34;5118704;28;20227;-65
2023/07/03 03:42:41;;;;;;;14.60;8.32;;;;;;;22.15;100.00;99344.47;5118397;27;20031;-65
2023/07/03 03:45:07;;;;;;;13.15;9.23;;;;;;;22.17;100.00;99348.56;5117486;27;20031;-65
2023/07/03 03:47:33;;;;;;;15.52;8.93;;;;;;;22.20;100.00;99345.38;5119699;27;20027;-65
2023/07/03 03:50:00;;;;;;;15.98;9.52;;;;;;;22.23;100.00;99344.88;5119987;27;20341;-65
2023/07/03 03:52:26;;;;;;;12.95;8.95;;;;;;;22.22;100.00;99345.94;5117024;28;20309;-65
2023/07/03 03:54:51;;;;;;;15.18;9.45;;;;;;;22.09;100.00;99345.47;5118388;27;20050;-65
2023/07/03 03:57:16;;;;;;;13.77;9.13;;;;;;;22.10;100.00;99347.91;5119842;27;20028;-65
2023/07/03 03:59:42;;;;;;;13.52;10.27;;;;;;;22.01;100.00;99340.44;5118662;28;20122;-65
2023/07/03 04:02:08;;;;;;;18.00;10.63;;;;;;;22.15;100.00;99350.69;5116854;27;20031;-65
2023/07/03 04:04:34;;;;;;;14.70;10.30;;;;;;;22.09;100.00;99351.66;5117943;28;20255;-65
2023/07/03 04:07:00;;;;;;;17.60;10.68;;;;;;;22.23;100.00;99363.75;5117714;27;20039;-65
2023/07/03 04:09:26;;;;;;;17.00;10.52;;;;;;;22.04;100.00;99364.25;5116587;27;20337;-65
2023/07/03 04:11:51;;;;;;;14.43;9.88;;;;;;;22.12;100.00;99361.97;5117284;27;20042;-65
2023/07/03 04:14:17;;;;;;;17.75;10.80;;;;;;;22.14;100.00;99359.84;5116770;27;20100;-65
2023/07/03 04:16:43;;;;;;;15.23;11.00;;;;;;;22.15;100.00;99363.34;5118200;27;20030;-65
2023/07/03 04:19:09;;;;;;;16.75;10.77;;;;;;;22.26;100.00;99362.44;5118380;27;20050;-65
2023/07/03 04:21:34;;;;;;;17.27;11.38;;;;;;;22.37;100.00;99363.41;5115082;27;20209;-65
2023/07/03 04:24:00;;;;;;;19.20;11.73;;;;;;;22.50;100.00;99380.03;5118107;27;20047;-65
2023/07/03 04:26:26;;;;;;;17.77;11.80;;;;;;;22.65;100.00;99375.94;5117129;27;20226;-65
2023/07/03 04:28:51;;;;;;;15.18;10.98;;;;;;;22.77;99.55;99377.44;5116671;27;20609;-65
2023/07/03 04:31:17;;;;;;;15.95;11.00;;;;;;;22.89;98.60;99378.19;5118446;27;20043;-65
2023/07/03 04:33:45;;;;;;;18.60;12.35;;;;;;;22.97;98.01;99378.81;5118904;28;20317;-65
2023/07/03 04:36:13;;;;;;;18.40;12.30;;;;;;;23.01;97.41;99378.06;5118638;27;20031;-65
2023/07/03 04:38:41;;;;;;;19.70;11.90;;;;;;;23.15;97.23;99384.72;5117655;27;20039;-65
2023/07/03 04:41:08;;;;;;;17.23;11.85;;;;;;;23.22;96.27;99377.22;5117480;27;20034;-65
2023/07/03 04:43:33;;;;;;;15.18;11.23;;;;;;;23.30;94.94;99391.34;5116812;27;20245;-65
2023/07/03 04:46:03;;;;;;;16.63;11.57;;;;;;;23.28;94.94;99388.09;5115280;27;20045;-65
2023/07/03 04:48:29;;;;;;;17.27;12.18;;;;;;;23.45;93.76;99391.53;5117985;27;20356;-65
2023/07/03 04:50:54;;;;;;;16.88;11.73;;;;;;;23.57;93.47;99397.63;5115406;27;20098;-65
2023/07/03 04:53:23;;;;;;;16.23;11.02;;;;;;;23.75;92.37;99399.13;5118066;27;20096;-65
2023/07/03 04:55:49;;;;;;;15.10;11.30;;;;;;;23.95;92.56;99398.53;5117408;28;20035;-65
2023/07/03 04:58:15;;;;;;;17.02;12.20;;;;;;;24.13;89.81;99403.56;5117122;27;20040;-65
2023/07/03 05:00:40;;;;;;;15.40;10.80;;;;;;;24.24;88.46;99409.84;5115924;27;20246;-65
2023/07/03 05:03:07;;;;;;;14.93;11.00;;;;;;;24.37;87.56;99412.97;5116197;27;20050;-65
2023/07/03 05:05:33;;;;;;;17.92;11.23;;;;;;;24.44;87.34;99413.53;5117696;27;20432;-65
2023/07/03 05:07:58;;;;;;;17.17;12.13;;;;;;;24.54;86.71;99415.50;5118584;27;20023;-65
2023/07/03 05:10:24;;;;;;;16.95;11.75;;;;;;;24.70;85.93;99413.69;5118217;27;20054;-65
2023/07/03 05:12:50;;;;;;;18.20;12.05;;;;;;;24.62;85.54;99411.50;5116128;27;20120;-65
2023/07/03 05:15:18;;;;;;;16.77;11.70;;;;;;;24.77;84.96;99406.16;5116118;27;20291;-65
2023/07/03 05:17:51;;;;;;;16.33;11.60;;;;;;;24.86;83.23;99414.59;5099348;27;20268;-65
2023/07/03 05:20:18;;;;;;;18.80;13.25;;;;;;;24.95;82.68;99421.13;5116579;28;20286;-65
2023/07/03 05:22:44;;;;;;;17.38;12.75;;;;;;;24.76;84.41;99421.59;5115433;27;20102;-65
2023/07/03 05:25:12;;;;;;;19.40;13.00;;;;;;;24.89;83.33;99422.19;5117245;28;20050;-65
2023/07/03 05:27:38;;;;;;;16.95;12.73;;;;;;;24.86;83.92;99422.72;5116412;28;20039;-65
2023/07/03 05:30:05;;;;;;;18.35;13.57;;;;;;;25.09;83.30;99416.94;5115052;27;20040;-65
2023/07/03 05:32:31;;;;;;;17.02;13.02;;;;;;;25.18;81.81;99426.19;5112781;28;20236;-65
2023/07/03 05:34:56;;;;;;;17.63;13.27;;;;;;;25.36;81.26;99424.88;5116556;28;20027;-65
2023/07/03 05:37:22;;;;;;;16.80;12.75;;;;;;;25.53;80.76;99422.75;5120430;28;20284;-65
2023/07/03 05:39:49;;;;;;;20.58;13.82;;;;;;;25.70;79.44;99420.66;5135292;28;20348;-65
2023/07/03 05:42:15;;;;;;;16.55;13.55;;;;;;;25.87;79.24;99427.72;5138390;28;20057;-65
2023/07/03 05:44:43;;;;;;;16.85;13.93;;;;;;;25.99;76.95;99429.09;5138844;28;20063;-65
2023/07/03 05:47:08;;;;;;;17.10;13.88;;;;;;;26.15;77.31;99429.13;5138304;28;20039;-65
2023/07/03 05:49:33;;;;;;;18.88;14.25;;;;;;;26.19;76.44;99427.50;5139380;27;20039;-65
2023/07/03 05:51:59;;;;;;;20.38;14.25;;;;;;;26.30;75.27;99421.78;5141715;27;20066;-65
2023/07/03 05:54:24;;;;;;;18.83;15.15;;;;;;;26.43;74.25;99422.34;5141993;27;20233;-65
2023/07/03 05:57:05;;;;;;;19.55;14.23;;;;;;;26.20;74.46;99429.94;5142082;27;20023;-65
2023/07/03 05:59:32;;;;;;;19.08;14.80;;;;;;;26.21;74.14;99419.91;5141602;27;20090;-65
2023/07/03 06:01:58;;;;;;;20.23;15.13;;;;;;;26.40;75.00;99431.84;5141710;27;20047;-65
2023/07/03 06:04:24;;;;;;;24.92;15.20;;;;;;;26.59;73.37;99423.94;5141808;27;20110;-65
2023/07/03 06:06:55;;;;;;;18.23;15.52;;;;;;;26.64;72.71;99427.47;5141864;27;20336;-65
2023/07/03 06:09:21;;;;;;;19.63;15.07;;;;;;;26.65;73.10;99426.38;5142034;27;20031;-65
2023/07/03 06:11:47;;;;;;;17.85;14.60;;;;;;;26.58;71.74;99423.13;5141995;27;20043;-65
2023/07/03 06:14:15;;;;;;;20.52;15.48;;;;;;;26.83;72.04;99419.53;5141306;27;20039;-65
2023/07/03 06:16:42;;;;;;;20.23;15.50;;;;;;;26.82;71.49;99422.53;5142957;27;20035;-65
2023/07/03 06:19:07;;;;;;;19.77;14.88;;;;;;;26.77;70.86;99417.13;5142530;27;20031;-65
2023/07/03 06:21:33;;;;;;;19.65;15.18;;;;;;;26.95;70.67;99421.94;5128792;27;20046;-65
2023/07/03 06:23:58;;;;;;;20.17;15.73;;;;;;;27.25;70.99;99427.31;5141341;27;20047;-65
2023/07/03 06:26:24;;;;;;;18.50;15.00;;;;;;;27.51;69.02;99417.13;5142109;27;20031;-65
2023/07/03 06:28:49;;;;;;;19.30;14.80;;;;;;;27.33;67.48;99415.03;5135946;27;20076;-65
2023/07/03 06:31:15;;;;;;;20.20;15.02;;;;;;;27.43;68.44;99420.44;5130605;27;20035;-65
2023/07/03 06:33:40;;;;;;;17.45;14.07;;;;;;;27.24;68.21;99417.53;5119598;27;20047;-65
2023/07/03 06:36:05;;;;;;;19.58;14.95;;;;;;;27.45;68.73;99431.03;5119019;27;20472;-65
2023/07/03 06:38:31;;;;;;;19.10;15.88;;;;;;;27.82;66.28;99422.38;5120259;27;20028;-65
2023/07/03 06:40:58;;;;;;;18.58;15.32;;;;;;;27.84;65.22;99421.00;5120856;27;20101;-65
2023/07/03 06:43:24;;;;;;;20.13;15.05;;;;;;;28.11;64.86;99427.91;5119974;27;20047;-65
2023/07/03 06:45:50;;;;;;;18.05;14.52;;;;;;;28.16;64.82;99430.59;5120630;27;20032;-65
2023/07/03 06:48:16;;;;;;;20.88;15.38;;;;;;;28.43;63.27;99430.09;5119916;27;20503;-65
2023/07/03 06:50:41;;;;;;;18.92;14.77;;;;;;;28.50;63.03;99431.41;5120378;27;20035;-65
2023/07/03 06:53:06;;;;;;;19.75;15.93;;;;;;;28.72;61.71;99433.63;5119376;28;20055;-65
2023/07/03 06:55:32;;;;;;;18.23;14.43;;;;;;;28.84;61.30;99436.78;5117987;28;20032;-65
2023/07/03 06:58:00;;;;;;;19.33;15.52;;;;;;;29.13;62.32;99431.31;5121804;27;20271;-65
2023/07/03 07:00:26;;;;;;;17.17;14.75;;;;;;;29.30;61.35;99422.63;5112323;27;20349;-65
2023/07/03 07:02:51;;;;;;;18.50;15.05;;;;;;;29.30;59.39;99430.81;5118483;27;20283;-65
2023/07/03 07:05:19;;;;;;;20.23;15.43;;;;;;;29.46;59.01;99429.53;5118685;27;20069;-65
2023/07/03 07:07:45;;;;;;;17.48;13.45;;;;;;;29.33;58.24;99435.69;5118460;27;20060;-65
2023/07/03 07:10:11;;;;;;;19.25;14.10;;;;;;;29.51;58.46;99423.19;5117688;27;20303;-65
2023/07/03 07:12:36;;;;;;;18.45;13.82;;;;;;;29.62;57.51;99429.31;5118316;27;20023;-65
2023/07/03 07:15:02;;;;;;;17.95;14.57;;;;;;;29.73;56.33;99422.59;5117323;27;20048;-65
2023/07/03 07:17:27;;;;;;;19.98;15.32;;;;;;;29.81;56.00;99424.66;5112943;27;20318;-65
2023/07/03 07:19:53;;;;;;;16.88;13.20;;;;;;;30.01;54.90;99426.25;5119280;27;20028;-65
2023/07/03 07:22:18;;;;;;;16.63;14.18;;;;;;;30.10;53.88;99430.78;5117121;27;20032;-65
2023/07/03 07:24:44;;;;;;;18.60;14.77;;;;;;;30.07;55.15;99436.03;5118421;27;20523;-65
2023/07/03 07:27:09;;;;;;;16.52;14.70;;;;;;;30.22;55.82;99433.06;5120360;27;20038;-65
2023/07/03 07:29:35;;;;;;;17.90;15.77;;;;;;;30.31;54.92;99417.63;5120125;27;20674;-65
2023/07/03 07:32:00;;;;;;;17.05;14.27;;;;;;;30.04;54.07;99431.16;5119139;28;20027;-65
2023/07/03 07:34:26;;;;;;;17.67;14.60;;;;;;;30.27;56.24;99423.97;5117804;27;20236;-65
2023/07/03 07:36:51;;;;;;;18.17;14.82;;;;;;;30.38;55.10;99420.75;5117414;27;20027;-65
2023/07/03 07:39:21;;;;;;;14.40;12.68;;;;;;;30.35;54.13;99417.81;5098325;28;20119;-65
2023/07/03 07:41:47;;;;;;;18.17;14.50;;;;;;;30.60;52.96;99432.97;5098440;28;20040;-65
2023/07/03 07:44:12;;;;;;;16.67;14.63;;;;;;;30.79;53.16;99422.78;5118737;27;20043;-65
2023/07/03 07:46:38;;;;;;;19.20;14.52;;;;;;;30.82;52.48;99424.91;5117780;27;20103;-65
2023/07/03 07:49:03;;;;;;;18.35;13.65;;;;;;;31.11;52.37;99428.13;5117962;27;20038;-65
2023/07/03 07:51:29;;;;;;;16.73;13.45;;;;;;;31.26;51.00;99421.59;5112712;27;20367;-65
2023/07/03 07:53:56;;;;;;;16.92;13.23;;;;;;;31.34;49.74;99418.13;5119505;27;20035;-65
2023/07/03 07:56:22;;;;;;;16.73;13.65;;;;;;;31.32;49.51;99422.28;5119076;27;20032;-65
2023/07/03 07:58:48;;;;;;;15.27;13.68;;;;;;;31.18;51.45;99425.00;5116386;27;20042;-65
2023/07/03 08:01:14;;;;;;;14.02;12.30;;;;;;;31.44;50.07;99428.03;5116218;27;20044;-65
2023/07/03 08:03:41;;;;;;;14.85;12.52;;;;;;;31.60;49.11;99423.03;5117121;27;20322;-65
2023/07/03 08:06:08;;;;;;;15.43;12.90;;;;;;;31.45;48.45;99432.41;5118796;28;20046;-65
2023/07/03 08:08:33;;;;;;;15.35;12.60;;;;;;;31.51;46.80;99425.69;5117513;27;20047;-65
2023/07/03 08:11:01;;;;;;;14.68;12.35;;;;;;;31.45;47.37;99421.44;5117922;27;20127;-65
2023/07/03 08:13:29;;;;;;;15.23;12.48;;;;;;;31.77;46.79;99425.94;5117218;27;20042;-65
2023/07/03 08:15:55;;;;;;;14.35;12.02;;;;;;;31.89;46.18;99422.66;5117772;27;20023;-65
2023/07/03 08:18:21;;;;;;;14.73;12.70;;;;;;;32.00;47.05;99424.84;5117769;27;20363;-65
2023/07/03 08:20:48;;;;;;;14.88;12.38;;;;;;;32.02;45.88;99427.25;5117193;28;20248;-65
2023/07/03 08:23:13;;;;;;;15.85;11.90;;;;;;;32.06;44.17;99431.00;5118414;27;20091;-65
2023/07/03 08:25:40;;;;;;;13.35;11.75;;;;;;;31.99;45.31;99428.69;5118925;27;20024;-65
2023/07/03 08:28:05;;;;;;;14.55;12.13;;;;;;;32.14;45.12;99433.00;5118139;28;20039;-65
2023/07/03 08:30:31;;;;;;;13.70;11.50;;;;;;;32.14;45.73;99429.44;5117714;27;20036;-65
2023/07/03 08:32:56;;;;;;;14.18;12.20;;;;;;;31.90;43.35;99437.97;5118807;28;20035;-65
2023/07/03 08:35:22;;;;;;;14.48;12.35;;;;;;;31.98;45.24;99429.00;5119110;28;20036;-65
2023/07/03 08:37:47;;;;;;;16.10;12.57;;;;;;;32.08;45.32;99428.75;5119734;27;20049;-66
2023/07/03 08:40:18;;;;;;;15.13;12.07;;;;;;;32.08;42.93;99439.72;5117756;27;20027;-65
2023/07/03 08:42:58;;;;;;;14.98;12.05;;;;;;;32.23;42.56;99431.13;5116213;27;20046;-65
2023/07/03 08:45:35;;;;;;;15.85;13.52;;;;;;;32.43;43.54;99429.84;5118189;28;20065;-65
2023/07/03 08:48:04;;;;;;;15.35;12.18;;;;;;;32.60;42.61;99429.13;5117403;27;20102;-65
2023/07/03 08:50:30;;;;;;;13.80;12.38;;;;;;;32.51;43.54;99426.34;5117516;27;20074;-66
2023/07/03 08:53:00;;;;;;;15.43;12.73;;;;;;;32.62;44.03;99426.88;5118541;27;20058;-65
2023/07/03 08:55:36;;;;;;;14.30;12.23;;;;;;;32.80;43.81;99425.84;5117577;27;20106;-66
2023/07/03 08:58:01;;;;;;;14.35;12.45;;;;;;;32.74;44.15;99424.34;5117872;28;20335;-66
2023/07/03 09:00:33;;;;;;;15.57;12.45;;;;;;;32.80;43.01;99427.78;5118135;27;20070;-66
2023/07/03 09:03:09;;;;;;;13.90;11.90;;;;;;;32.79;42.46;99426.16;5118239;28;20321;-66
2023/07/03 09:05:48;;;;;;;13.93;12.13;;;;;;;32.63;43.82;99426.56;5117805;27;20039;-65
2023/07/03 09:08:25;;;;;;;14.15;12.23;;;;;;;32.81;43.23;99426.66;5113888;27;20344;-66
2023/07/03 09:10:50;;;;;;;13.20;11.80;;;;;;;32.78;42.75;99428.09;5116702;27;20035;-66
2023/07/03 09:13:34;;;;;;;12.23;10.65;;;;;;;32.37;41.01;99422.88;5118648;27;20351;-65
2023/07/03 09:16:11;;;;;;;12.18;10.75;;;;;;;32.32;41.09;99418.34;5115534;27;20376;-65
2023/07/03 09:18:42;;;;;;;13.90;11.63;;;;;;;32.33;42.76;99425.44;5114863;28;20131;-65
2023/07/03 09:21:08;;;;;;;13.43;11.15;;;;;;;32.32;41.05;99431.22;5115648;27;20027;-65
2023/07/03 09:23:40;;;;;;;12.70;11.15;;;;;;;32.31;40.54;99424.13;5117055;28;20074;-65
2023/07/03 09:26:21;;;;;;;13.65;11.75;;;;;;;32.04;42.97;99420.34;5116531;28;20080;-65
2023/07/03 09:28:47;;;;;;;15.02;11.57;;;;;;;32.00;41.46;99415.81;5116799;27;20165;-65
2023/07/03 09:31:13;;;;;;;13.85;11.70;;;;;;;31.95;43.18;99418.69;5116837;28;20192;-65
2023/07/03 09:33:38;;;;;;;14.68;10.23;;;;;;;31.80;41.05;99427.25;5116221;28;20091;-65
2023/07/03 09:36:21;;;;;;;13.05;10.82;;;;;;;31.77;40.97;99417.72;5116377;28;20330;-65
2023/07/03 09:38:47;;;;;;;13.45;10.90;;;;;;;31.68;41.74;99417.63;5115458;28;20050;-65
2023/07/03 09:41:13;;;;;;;11.45;9.90;;;;;;;31.57;41.15;99416.25;5115918;28;20023;-65
2023/07/03 09:43:44;;;;;;;15.02;10.32;;;;;;;31.56;44.62;99417.38;5114922;28;20355;-65
2023/07/03 09:46:12;;;;;;;14.00;11.05;;;;;;;31.48;43.91;99403.59;5112731;28;20091;-65
2023/07/03 09:48:38;;;;;;;10.60;8.98;;;;;;;31.57;40.67;99412.69;5116636;28;20050;-65
2023/07/03 09:51:22;;;;;;;12.75;9.02;;;;;;;31.56;41.60;99409.16;5114711;28;20035;-65
2023/07/03 09:53:47;;;;;;;11.95;10.18;;;;;;;31.37;41.97;99406.56;5117515;28;20043;-65
2023/07/03 09:56:17;;;;;;;11.85;9.75;;;;;;;31.48;43.08;99403.59;5116237;28;20065;-65
2023/07/03 09:58:52;;;;;;;12.88;10.35;;;;;;;31.38;45.08;99410.94;5117322;28;20233;-65
2023/07/03 10:01:23;;;;;;;14.65;9.82;;;;;;;31.43;43.89;99402.59;5116941;28;20051;-65
2023/07/03 10:04:07;;;;;;;9.50;8.38;;;;;;;31.50;41.39;99398.63;5117682;28;20435;-65
2023/07/03 10:06:33;;;;;;;12.55;9.27;;;;;;;31.44;40.21;99401.50;5116058;28;20031;-65
2023/07/03 10:09:05;;;;;;;12.57;9.98;;;;;;;31.45;39.84;99405.03;5116465;28;20028;-65
2023/07/03 10:11:48;;;;;;;13.13;8.98;;;;;;;31.17;42.23;99406.19;5115211;28;20099;-66
2023/07/03 10:14:19;;;;;;;12.68;9.95;;;;;;;31.29;42.03;99398.28;5115151;28;20063;-65
2023/07/03 10:16:49;;;;;;;11.82;9.40;;;;;;;31.41;41.67;99404.03;5116810;28;20058;-65
2023/07/03 10:19:15;;;;;;;11.88;9.65;;;;;;;31.34;39.24;99396.25;5115402;28;20035;-65
2023/07/03 10:21:42;;;;;;;10.73;9.55;;;;;;;31.33;43.39;99396.56;5116290;28;20028;-66
2023/07/03 10:24:09;;;;;;;10.18;9.00;;;;;;;31.17;41.45;99395.22;5115431;28;20043;-65
2023/07/03 10:26:47;;;;;;;12.18;9.25;;;;;;;31.17;41.13;99392.50;5115254;28;20038;-65
2023/07/03 10:29:45;;;;;;;11.35;8.75;;;;;;;31.04;40.03;99391.38;5114947;28;20036;-65
2023/07/03 10:32:16;;;;;;;11.02;8.52;;;;;;;30.99;41.44;99392.28;5103560;28;20050;-65
2023/07/03 10:35:02;;;;;;;11.32;9.25;;;;;;;31.06;40.66;99392.69;5113973;28;20032;-65
2023/07/03 10:37:31;;;;;;;11.85;8.93;;;;;;;31.06;40.67;99386.41;5116610;27;20040;-65
2023/07/03 10:40:04;;;;;;;9.98;8.95;;;;;;;31.25;42.03;99387.16;5120651;28;20032;-65
2023/07/03 10:42:38;;;;;;;10.57;9.07;;;;;;;31.36;43.25;99387.72;5119021;27;20194;-65
2023/07/03 10:45:12;;;;;;;12.10;9.82;;;;;;;31.34;38.63;99387.22;5118314;27;20088;-65
2023/07/03 10:47:47;;;;;;;12.00;8.70;;;;;;;31.32;39.72;99384.81;5121350;27;20030;-65
2023/07/03 10:50:13;;;;;;;12.15;9.43;;;;;;;31.17;40.78;99384.28;5119953;28;20027;-65
2023/07/03 10:52:54;;;;;;;11.32;8.77;;;;;;;31.14;39.45;99377.47;5120589;27;20072;-65
2023/07/03 10:55:33;;;;;;;13.05;9.35;;;;;;;31.11;38.70;99376.16;5115619;27;20272;-65
2023/07/03 10:57:58;;;;;;;11.70;7.55;;;;;;;31.03;36.89;99370.63;5119246;27;20039;-65
2023/07/03 11:00:57;;;;;;;9.05;6.70;;;;;;;31.02;36.32;99369.81;5117618;27;20039;-65
2023/07/03 11:04:12;;;;;;;8.55;6.18;;;;;;;31.05;37.33;99371.13;5118404;27;20043;-65
2023/07/03 11:06:50;;;;;;;7.93;6.45;;;;;;;31.10;33.72;99371.81;5014910;28;20058;-65
2023/07/03 11:09:37;;;;;;;9.45;6.88;;;;;;;31.16;34.91;99367.06;5104632;27;20075;-65
2023/07/03 11:12:16;;;;;;;8.82;6.55;;;;;;;31.24;36.65;99371.84;5116607;27;20059;-65
2023/07/03 11:14:58;;;;;;;8.85;7.40;;;;;;;31.27;37.00;99367.69;5116496;27;20040;-65
2023/07/03 11:17:26;;;;;;;9.30;6.90;;;;;;;31.22;35.70;99367.81;5118879;27;20234;-65
2023/07/03 11:20:00;;;;;;;9.57;7.18;;;;;;;31.09;35.29;99369.38;5117570;27;20138;-65
2023/07/03 11:22:31;;;;;;;9.60;6.82;;;;;;;30.78;35.30;99361.81;5116409;27;20253;-65
2023/07/03 11:25:09;;;;;;;8.93;6.93;;;;;;;30.78;36.33;99358.28;5118912;27;20106;-66